Time;durP1;ratioP1;P1;durP2;ratioP2;P2;SDS_P1;SDS_P2;PMS_P1;PMS_P2;Temp;Humidity;BMP_temperature;BMP_pressure;BME280_temperature;BME280_humidity;BME280_pressure;Samples;Min_cycle;Max_cycle;Signal;HPM_P1;HPM_P2
2022/08/31 00:04:29;;;;;;;1.40;1.30;;;19.70;99.90;;;;;;4998399;28;20084;-73
2022/08/31 00:06:55;;;;;;;5.22;1.33;;;19.70;99.90;;;;;;4997663;28;20050;-74
2022/08/31 00:09:21;;;;;;;1.92;1.30;;;19.70;99.90;;;;;;4995883;28;20038;-76
2022/08/31 00:11:46;;;;;;;3.47;2.20;;;19.60;99.90;;;;;;5001956;28;20019;-76
2022/08/31 00:14:12;;;;;;;1.17;1.10;;;19.60;99.90;;;;;;4983537;28;20025;-76
2022/08/31 00:16:39;;;;;;;5.03;1.27;;;19.60;99.90;;;;;;4982021;28;20030;-75
2022/08/31 00:19:05;;;;;;;2.17;0.93;;;19.70;99.90;;;;;;4981289;28;20034;-75
2022/08/31 00:21:37;;;;;;;0.90;0.90;;;19.70;99.90;;;;;;4980275;28;20031;-74
2022/08/31 00:24:06;;;;;;;1.57;1.20;;;19.60;99.90;;;;;;5009870;28;20041;-75
2022/08/31 00:26:32;;;;;;;0.90;0.90;;;19.60;99.90;;;;;;4994403;28;20117;-75
2022/08/31 00:28:57;;;;;;;1.38;1.15;;;19.50;99.90;;;;;;4993012;28;20101;-77
2022/08/31 00:31:23;;;;;;;3.42;1.23;;;19.50;99.90;;;;;;4995752;28;20034;-74
2022/08/31 00:33:51;;;;;;;1.48;1.20;;;19.50;99.90;;;;;;4991708;28;20026;-75
2022/08/31 00:36:19;;;;;;;1.33;1.23;;;19.60;99.90;;;;;;4985349;28;20105;-76
2022/08/31 00:38:47;;;;;;;1.95;1.17;;;19.60;99.90;;;;;;4989193;28;20023;-75
2022/08/31 00:41:13;;;;;;;1.75;1.30;;;19.50;99.90;;;;;;4992926;28;20133;-74
2022/08/31 00:43:54;;;;;;;7.43;1.38;;;19.50;99.90;;;;;;4996615;28;20091;-74
2022/08/31 00:46:26;;;;;;;3.22;1.75;;;19.60;99.90;;;;;;4993948;28;20109;-76
2022/08/31 00:49:06;;;;;;;1.17;1.13;;;19.60;99.90;;;;;;4990061;28;20049;-76
2022/08/31 00:51:36;;;;;;;1.20;1.10;;;19.50;99.90;;;;;;4992805;28;20038;-75
2022/08/31 00:54:06;;;;;;;1.05;0.98;;;19.50;99.90;;;;;;4991940;28;20471;-76
2022/08/31 00:56:34;;;;;;;2.50;1.20;;;19.50;99.90;;;;;;4991029;28;20026;-76
2022/08/31 00:59:02;;;;;;;1.13;1.02;;;19.50;99.90;;;;;;4992382;28;20473;-75
2022/08/31 01:01:29;;;;;;;1.17;1.10;;;19.50;99.90;;;;;;4991266;28;20479;-74
2022/08/31 01:03:56;;;;;;;1.20;1.00;;;19.50;99.90;;;;;;4986659;28;20062;-76
2022/08/31 01:06:24;;;;;;;3.75;1.23;;;19.50;99.90;;;;;;4991635;28;20034;-76
2022/08/31 01:08:52;;;;;;;3.30;1.25;;;19.50;99.90;;;;;;4987105;28;20035;-76
2022/08/31 01:11:22;;;;;;;1.17;1.08;;;19.50;99.90;;;;;;4994321;28;20558;-76
2022/08/31 01:13:51;;;;;;;3.20;1.40;;;19.40;99.90;;;;;;4985349;28;20022;-73
2022/08/31 01:16:26;;;;;;;4.45;0.98;;;19.40;99.90;;;;;;4995826;28;20093;-75
2022/08/31 01:18:55;;;;;;;2.10;1.25;;;19.40;99.90;;;;;;4991337;28;20023;-76
2022/08/31 01:21:39;;;;;;;1.98;1.17;;;19.40;99.90;;;;;;4991733;28;20486;-76
2022/08/31 01:24:07;;;;;;;3.30;1.27;;;19.40;99.90;;;;;;4990867;28;20212;-76
2022/08/31 01:26:33;;;;;;;1.52;1.20;;;19.30;99.90;;;;;;4988337;28;20034;-76
2022/08/31 01:29:04;;;;;;;2.28;1.30;;;19.30;99.90;;;;;;4988006;28;20117;-74
2022/08/31 01:31:32;;;;;;;1.75;1.30;;;19.30;99.90;;;;;;4987874;28;20038;-75
2022/08/31 01:33:58;;;;;;;1.58;1.10;;;19.30;99.90;;;;;;4990936;28;20072;-75
2022/08/31 01:36:28;;;;;;;2.58;1.52;;;19.30;99.90;;;;;;4991398;28;20076;-78
2022/08/31 01:38:54;;;;;;;1.60;1.23;;;19.30;99.90;;;;;;4990183;28;20439;-75
2022/08/31 01:41:20;;;;;;;1.60;1.02;;;19.30;99.90;;;;;;4995122;28;20118;-77
2022/08/31 01:43:46;;;;;;;2.33;1.15;;;19.20;99.90;;;;;;4988521;28;20030;-73
2022/08/31 01:46:12;;;;;;;2.63;1.00;;;19.20;99.90;;;;;;4993479;28;20034;-77
2022/08/31 01:48:41;;;;;;;2.17;1.20;;;19.10;99.90;;;;;;4990383;28;20027;-75
2022/08/31 01:51:08;;;;;;;1.20;1.08;;;19.10;99.90;;;;;;4993354;28;20033;-78
2022/08/31 01:53:34;;;;;;;4.90;1.40;;;19.10;99.90;;;;;;4990548;28;20085;-77
2022/08/31 01:55:59;;;;;;;2.53;1.38;;;19.10;99.90;;;;;;4991313;28;20368;-75
2022/08/31 01:58:25;;;;;;;1.92;1.10;;;19.00;99.90;;;;;;4991593;28;20069;-78
2022/08/31 02:00:53;;;;;;;1.60;1.13;;;19.00;99.90;;;;;;4990703;28;20520;-74
2022/08/31 02:03:19;;;;;;;1.20;1.10;;;18.90;99.90;;;;;;4990758;28;20101;-74
2022/08/31 02:05:47;;;;;;;2.83;1.27;;;19.00;99.90;;;;;;4989814;28;20034;-74
2022/08/31 02:08:13;;;;;;;3.65;1.20;;;18.90;99.90;;;;;;4993344;28;20061;-74
2022/08/31 02:10:39;;;;;;;3.13;1.52;;;18.90;99.90;;;;;;4992839;28;20054;-76
2022/08/31 02:13:05;;;;;;;9.20;1.30;;;18.90;99.90;;;;;;4992625;28;20133;-75
2022/08/31 02:15:31;;;;;;;1.73;1.00;;;18.90;99.90;;;;;;4991569;28;20053;-75
2022/08/31 02:17:57;;;;;;;5.03;1.30;;;18.90;99.90;;;;;;4989205;28;20033;-75
2022/08/31 02:20:23;;;;;;;2.55;1.10;;;18.80;99.90;;;;;;4991138;28;20388;-75
2022/08/31 02:22:49;;;;;;;1.77;1.15;;;18.80;99.90;;;;;;4989839;28;20489;-76
2022/08/31 02:25:18;;;;;;;1.17;1.08;;;18.70;99.90;;;;;;4996498;28;20022;-75
2022/08/31 02:27:43;;;;;;;1.42;1.20;;;18.70;99.90;;;;;;4991909;28;20097;-76
2022/08/31 02:30:15;;;;;;;2.95;1.20;;;18.70;99.90;;;;;;4993848;28;20033;-75
2022/08/31 02:32:41;;;;;;;2.95;1.42;;;18.60;99.90;;;;;;4999727;28;20022;-75
2022/08/31 02:35:10;;;;;;;1.58;1.10;;;18.60;99.90;;;;;;4990404;28;20045;-76
2022/08/31 02:37:36;;;;;;;2.25;1.10;;;18.60;99.90;;;;;;4989754;28;20117;-75
2022/08/31 02:40:04;;;;;;;1.67;1.30;;;18.60;99.90;;;;;;4988779;28;20030;-78
2022/08/31 02:42:33;;;;;;;1.25;1.15;;;18.60;99.90;;;;;;4985571;28;20116;-75
2022/08/31 02:45:00;;;;;;;5.00;1.15;;;18.50;99.90;;;;;;4991378;28;20117;-76
2022/08/31 02:47:29;;;;;;;2.42;1.17;;;18.40;99.90;;;;;;4983806;28;20029;-74
2022/08/31 02:49:54;;;;;;;4.45;1.20;;;18.50;99.90;;;;;;4992958;28;20026;-76
2022/08/31 02:52:20;;;;;;;2.45;1.15;;;18.40;99.90;;;;;;4995145;28;20096;-75
2022/08/31 02:54:46;;;;;;;2.38;1.27;;;18.40;99.90;;;;;;4991664;28;20037;-75
2022/08/31 02:57:11;;;;;;;1.52;1.40;;;18.40;99.90;;;;;;4991472;28;20026;-73
2022/08/31 02:59:37;;;;;;;472.63;225.50;;;18.40;99.90;;;;;;4993540;28;20053;-72
2022/08/31 03:02:03;;;;;;;51.83;21.55;;;18.40;99.90;;;;;;4990030;28;20085;-72
2022/08/31 03:04:31;;;;;;;5.20;1.45;;;18.40;99.90;;;;;;4990772;28;20022;-74
2022/08/31 03:06:57;;;;;;;1.58;1.10;;;18.40;99.90;;;;;;4989747;28;20041;-76
2022/08/31 03:09:23;;;;;;;1.38;1.15;;;18.40;99.90;;;;;;4986563;28;20022;-75
2022/08/31 03:11:49;;;;;;;1.23;0.90;;;18.40;99.90;;;;;;4985579;28;20038;-74
2022/08/31 03:14:14;;;;;;;2.47;1.00;;;18.40;99.90;;;;;;4987206;28;20443;-75
2022/08/31 03:16:44;;;;;;;2.03;1.58;;;18.40;99.90;;;;;;4992308;28;20054;-75
2022/08/31 03:19:10;;;;;;;1.20;1.10;;;18.40;99.90;;;;;;4989342;28;20038;-75
2022/08/31 03:21:36;;;;;;;1.15;0.80;;;18.30;99.90;;;;;;4993062;28;20432;-75
2022/08/31 03:24:02;;;;;;;1.38;1.00;;;18.30;99.90;;;;;;4991344;28;20058;-76
2022/08/31 03:26:30;;;;;;;4.10;1.00;;;18.20;99.90;;;;;;4988489;28;20463;-74
2022/08/31 03:28:55;;;;;;;2.45;1.13;;;18.20;99.90;;;;;;4995036;28;20438;-75
2022/08/31 03:31:23;;;;;;;1.50;0.90;;;18.20;99.90;;;;;;4987690;28;20061;-77
2022/08/31 03:33:51;;;;;;;1.50;1.20;;;18.10;99.90;;;;;;4990001;28;20061;-76
2022/08/31 03:36:19;;;;;;;2.25;1.02;;;18.10;99.90;;;;;;4986500;28;20042;-76
2022/08/31 03:38:45;;;;;;;2.85;1.10;;;18.10;99.90;;;;;;4989794;28;20022;-75
2022/08/31 03:41:13;;;;;;;3.17;0.85;;;18.10;99.90;;;;;;4990011;28;20034;-75
2022/08/31 03:43:39;;;;;;;6.50;1.15;;;18.10;99.90;;;;;;4992039;28;20527;-72
2022/08/31 03:46:04;;;;;;;2.45;1.00;;;18.10;99.90;;;;;;4984985;28;20069;-75
2022/08/31 03:48:30;;;;;;;1.30;1.17;;;18.10;99.90;;;;;;4988418;28;20030;-72
2022/08/31 03:50:58;;;;;;;1.70;1.33;;;18.00;99.90;;;;;;4991494;28;20414;-75
2022/08/31 03:53:24;;;;;;;0.90;0.90;;;18.00;99.90;;;;;;4986484;28;20069;-76
2022/08/31 03:55:49;;;;;;;4.80;1.00;;;18.00;99.90;;;;;;4991605;28;20050;-75
2022/08/31 03:58:15;;;;;;;0.80;0.80;;;17.90;99.90;;;;;;4994500;28;20077;-75
2022/08/31 04:00:45;;;;;;;4.35;1.05;;;17.90;99.90;;;;;;4996889;28;20019;-76
2022/08/31 04:03:12;;;;;;;1.23;0.90;;;17.90;99.90;;;;;;4994683;28;20038;-75
2022/08/31 04:05:43;;;;;;;1.77;0.93;;;17.80;99.90;;;;;;4994333;28;20117;-75
2022/08/31 04:08:09;;;;;;;0.82;0.77;;;17.80;99.90;;;;;;4989642;28;20037;-76
2022/08/31 04:10:38;;;;;;;1.70;1.00;;;17.80;99.90;;;;;;5000102;28;20031;-75
2022/08/31 04:13:04;;;;;;;1.85;1.33;;;17.70;99.90;;;;;;4992766;28;20098;-76
2022/08/31 04:15:30;;;;;;;2.78;0.90;;;17.70;99.90;;;;;;4994560;28;20034;-75
2022/08/31 04:17:55;;;;;;;1.45;0.95;;;17.70;99.90;;;;;;4991505;28;20050;-74
2022/08/31 04:20:21;;;;;;;1.83;0.80;;;17.70;99.90;;;;;;4991416;28;20506;-75
2022/08/31 04:22:47;;;;;;;4.10;1.25;;;17.60;99.90;;;;;;4988402;28;20073;-76
2022/08/31 04:25:12;;;;;;;4.90;0.95;;;17.60;99.90;;;;;;4992735;28;20045;-75
2022/08/31 04:27:38;;;;;;;3.78;1.15;;;17.60;99.90;;;;;;4986212;28;20448;-76
2022/08/31 04:30:06;;;;;;;1.08;0.95;;;17.50;99.90;;;;;;4997327;28;20026;-74
2022/08/31 04:32:32;;;;;;;1.40;0.98;;;17.50;99.90;;;;;;4995517;28;20440;-75
2022/08/31 04:35:00;;;;;;;2.08;0.90;;;17.50;99.90;;;;;;4996848;28;20046;-74
2022/08/31 04:37:29;;;;;;;1.02;0.80;;;17.50;99.90;;;;;;4996888;28;20467;-75
2022/08/31 04:39:55;;;;;;;1.73;0.82;;;17.40;99.90;;;;;;4993204;28;20045;-75
2022/08/31 04:42:21;;;;;;;0.80;0.80;;;17.40;99.90;;;;;;4991399;28;20046;-75
2022/08/31 04:44:50;;;;;;;5.15;0.90;;;17.40;99.90;;;;;;4992013;28;20022;-75
2022/08/31 04:47:19;;;;;;;0.95;0.90;;;17.40;99.90;;;;;;4990599;28;20049;-74
2022/08/31 04:49:45;;;;;;;1.20;0.95;;;17.30;99.90;;;;;;4986696;28;20038;-77
2022/08/31 04:52:10;;;;;;;1.50;0.80;;;17.30;99.90;;;;;;4991358;28;20070;-78
2022/08/31 04:54:36;;;;;;;4.70;0.90;;;17.30;99.90;;;;;;4993754;28;20029;-75
2022/08/31 04:57:02;;;;;;;2.60;0.95;;;17.30;99.90;;;;;;4990825;28;20364;-75
2022/08/31 04:59:28;;;;;;;1.83;0.95;;;17.30;99.90;;;;;;4994768;28;20018;-73
2022/08/31 05:01:54;;;;;;;0.73;0.73;;;17.30;99.90;;;;;;4995310;28;20069;-75
2022/08/31 05:04:23;;;;;;;3.13;1.10;;;17.30;99.90;;;;;;4997319;28;20030;-75
2022/08/31 05:06:51;;;;;;;1.08;0.85;;;17.30;99.90;;;;;;4993410;28;20018;-75
2022/08/31 05:09:21;;;;;;;5.10;0.80;;;17.40;99.90;;;;;;4989840;28;20034;-75
2022/08/31 05:11:49;;;;;;;2.72;0.82;;;17.40;99.90;;;;;;4992643;28;20046;-74
2022/08/31 05:14:20;;;;;;;5.43;0.75;;;17.40;99.90;;;;;;4989418;28;20379;-73
2022/08/31 05:16:50;;;;;;;4.25;0.90;;;17.40;99.90;;;;;;4990509;28;20038;-76
2022/08/31 05:19:15;;;;;;;1.08;0.63;;;17.40;99.90;;;;;;4990867;28;20026;-75
2022/08/31 05:21:42;;;;;;;1.10;1.00;;;17.40;99.90;;;;;;4981235;28;20157;-75
2022/08/31 05:24:12;;;;;;;0.73;0.63;;;17.40;99.90;;;;;;4992493;28;20400;-75
2022/08/31 05:26:43;;;;;;;0.68;0.60;;;17.40;99.90;;;;;;4984900;28;20026;-76
2022/08/31 05:29:12;;;;;;;1.70;0.77;;;17.40;99.90;;;;;;4987569;28;20112;-76
2022/08/31 05:31:40;;;;;;;10.18;1.10;;;17.40;99.90;;;;;;4995614;28;20041;-76
2022/08/31 05:34:11;;;;;;;1.27;0.90;;;17.40;99.90;;;;;;4990298;28;20120;-77
2022/08/31 05:36:40;;;;;;;2.95;1.02;;;17.40;99.90;;;;;;4985518;28;20014;-77
2022/08/31 05:39:10;;;;;;;4.80;1.00;;;17.40;99.90;;;;;;4990686;28;20811;-75
2022/08/31 05:41:41;;;;;;;1.40;1.08;;;17.40;99.90;;;;;;4991963;28;20045;-76
2022/08/31 05:44:07;;;;;;;1.23;0.75;;;17.40;99.90;;;;;;4991263;28;20022;-76
2022/08/31 05:46:35;;;;;;;1.77;0.77;;;17.50;99.90;;;;;;4992660;28;20100;-75
2022/08/31 05:49:02;;;;;;;1.38;0.60;;;17.50;99.90;;;;;;4991002;28;20019;-75
2022/08/31 05:51:28;;;;;;;4.47;1.35;;;17.60;99.90;;;;;;4989527;28;20026;-73
2022/08/31 05:53:56;;;;;;;5.47;0.85;;;17.60;99.90;;;;;;5002328;28;20032;-76
2022/08/31 05:56:26;;;;;;;3.20;0.88;;;17.60;99.90;;;;;;4995009;28;20041;-76
2022/08/31 05:58:52;;;;;;;3.35;1.00;;;17.60;99.90;;;;;;4990786;28;20037;-74
2022/08/31 06:01:20;;;;;;;4.82;0.93;;;17.70;99.90;;;;;;4991211;28;20050;-75
2022/08/31 06:03:46;;;;;;;2.78;1.00;;;17.70;99.90;;;;;;4991785;28;20042;-76
2022/08/31 06:06:12;;;;;;;3.33;1.10;;;17.70;99.90;;;;;;4990112;28;20088;-75
2022/08/31 06:08:39;;;;;;;1.95;0.82;;;17.70;99.90;;;;;;4989444;28;20581;-74
2022/08/31 06:11:06;;;;;;;3.60;0.90;;;17.80;99.90;;;;;;4979132;28;20077;-75
2022/08/31 06:13:32;;;;;;;2.83;1.10;;;17.80;99.90;;;;;;4997889;28;20057;-75
2022/08/31 06:16:01;;;;;;;4.03;1.00;;;17.90;99.90;;;;;;4993771;28;20050;-75
2022/08/31 06:18:28;;;;;;;12.35;1.17;;;18.00;99.90;;;;;;4988308;28;20022;-75
2022/08/31 06:21:08;;;;;;;3.40;1.00;;;18.00;99.90;;;;;;4993039;28;20356;-75
2022/08/31 06:23:38;;;;;;;2.47;1.10;;;18.10;99.90;;;;;;4991413;28;20030;-75
2022/08/31 06:26:11;;;;;;;3.08;0.88;;;18.10;99.90;;;;;;4987990;28;20755;-75
2022/08/31 06:28:38;;;;;;;4.00;1.02;;;18.10;99.90;;;;;;4990967;28;20037;-74
2022/08/31 06:31:10;;;;;;;7.93;1.80;;;18.00;99.90;;;;;;4991759;28;20044;-75
2022/08/31 06:33:37;;;;;;;2.03;1.15;;;18.10;99.90;;;;;;4990602;28;20049;-75
2022/08/31 06:36:07;;;;;;;2.50;1.20;;;18.10;99.90;;;;;;4992387;28;20033;-75
2022/08/31 06:38:33;;;;;;;2.75;1.00;;;18.20;99.90;;;;;;4993376;28;20106;-75
2022/08/31 06:40:58;;;;;;;2.90;1.00;;;18.40;99.90;;;;;;4989257;28;20142;-75
2022/08/31 06:43:24;;;;;;;3.92;1.00;;;18.60;99.90;;;;;;4991874;28;20459;-75
2022/08/31 06:45:50;;;;;;;6.28;1.10;;;18.70;99.90;;;;;;4994951;28;20431;-75
2022/08/31 06:48:16;;;;;;;2.15;1.02;;;18.80;99.90;;;;;;4999279;28;20121;-74
2022/08/31 06:50:44;;;;;;;2.70;0.90;;;18.90;99.90;;;;;;4990195;28;20359;-75
2022/08/31 06:53:10;;;;;;;2.67;1.00;;;19.00;99.90;;;;;;4990328;28;20080;-76
2022/08/31 06:55:36;;;;;;;5.00;1.13;;;19.00;99.90;;;;;;4989297;28;20109;-76
2022/08/31 06:58:02;;;;;;;1.95;1.05;;;19.10;99.90;;;;;;4988406;28;20117;-74
2022/08/31 07:00:31;;;;;;;2.20;0.80;;;19.20;99.90;;;;;;4989519;28;20044;-74
2022/08/31 07:03:21;;;;;;;10.68;1.15;;;19.20;99.90;;;;;;4994041;28;20101;-76
2022/08/31 07:05:44;;;;;;;3.30;1.02;;;19.40;99.90;;;;;;4998236;28;20077;-76
2022/08/31 07:08:10;;;;;;;6.80;1.13;;;19.50;99.50;;;;;;4992905;28;20085;-75
2022/08/31 07:10:36;;;;;;;2.30;0.88;;;19.50;99.70;;;;;;4999474;28;20062;-75
2022/08/31 07:13:04;;;;;;;3.15;0.80;;;19.60;99.40;;;;;;4994636;28;20053;-78
2022/08/31 07:15:29;;;;;;;2.13;0.82;;;19.60;99.40;;;;;;4989939;28;20422;-75
2022/08/31 07:17:55;;;;;;;5.18;1.13;;;19.70;99.20;;;;;;4990884;28;20202;-75
2022/08/31 07:20:23;;;;;;;2.63;1.20;;;19.90;98.90;;;;;;4984480;28;20050;-76
2022/08/31 07:22:48;;;;;;;2.05;0.80;;;19.90;98.50;;;;;;4991939;28;20494;-77
2022/08/31 07:25:14;;;;;;;2.00;1.20;;;20.00;98.40;;;;;;4988353;28;20034;-75
2022/08/31 07:27:45;;;;;;;1.73;1.00;;;20.20;98.20;;;;;;4990087;28;20169;-76
2022/08/31 07:30:12;;;;;;;1.77;1.00;;;20.30;97.90;;;;;;4985142;28;20118;-76
2022/08/31 07:32:37;;;;;;;6.43;1.40;;;20.40;97.50;;;;;;4991511;28;20018;-76
2022/08/31 07:35:05;;;;;;;2.78;1.60;;;20.40;97.50;;;;;;4991973;28;20014;-76
2022/08/31 07:43:03;;;;;;;2.38;1.00;;;20.40;97.50;;;;;;4987950;28;20173;-74
2022/08/31 07:45:31;;;;;;;5.05;1.52;;;20.50;97.50;;;;;;4989055;28;20109;-76
2022/08/31 07:47:59;;;;;;;5.80;1.23;;;20.60;97.50;;;;;;4987632;28;20030;-74
2022/08/31 07:50:26;;;;;;;1.40;1.27;;;20.60;97.30;;;;;;4990145;28;20034;-75
2022/08/31 07:52:56;;;;;;;3.15;1.17;;;20.70;97.10;;;;;;4991019;28;20026;-74
2022/08/31 07:55:24;;;;;;;2.25;1.45;;;20.80;97.00;;;;;;4993223;28;20038;-75
2022/08/31 07:57:53;;;;;;;1.95;1.48;;;20.70;97.20;;;;;;4981289;28;20065;-75
2022/08/31 08:00:28;;;;;;;2.72;1.20;;;21.00;97.10;;;;;;4992691;28;20033;-75
2022/08/31 08:03:00;;;;;;;14.27;1.52;;;21.10;96.60;;;;;;4998632;28;20044;-75
2022/08/31 08:05:36;;;;;;;5.15;1.30;;;21.20;96.40;;;;;;4990426;28;20026;-75
2022/08/31 08:08:04;;;;;;;2.55;1.42;;;21.30;96.30;;;;;;4985229;28;20019;-76
2022/08/31 08:10:32;;;;;;;1.33;1.02;;;21.30;96.20;;;;;;4986195;28;20041;-76
2022/08/31 08:13:01;;;;;;;3.92;1.08;;;21.50;96.00;;;;;;4988910;28;20010;-75
2022/08/31 08:15:28;;;;;;;2.17;1.33;;;21.70;95.50;;;;;;4988650;28;20360;-72
2022/08/31 08:17:54;;;;;;;4.93;1.52;;;21.60;95.70;;;;;;4990418;28;20023;-75
2022/08/31 08:20:20;;;;;;;2.50;1.27;;;21.60;95.70;;;;;;4994392;28;20034;-75
2022/08/31 08:22:48;;;;;;;6.57;1.35;;;21.70;95.50;;;;;;4992612;28;20391;-75
2022/08/31 08:25:14;;;;;;;8.63;1.58;;;21.80;95.30;;;;;;4987870;28;20026;-75
2022/08/31 08:27:42;;;;;;;2.25;1.42;;;21.70;95.40;;;;;;4991999;28;20037;-76
2022/08/31 08:30:13;;;;;;;4.05;1.50;;;21.70;95.30;;;;;;4995411;28;20054;-75
2022/08/31 08:32:43;;;;;;;3.22;1.45;;;21.80;95.40;;;;;;4988491;28;20363;-75
2022/08/31 08:35:10;;;;;;;8.38;1.73;;;21.90;95.10;;;;;;4989716;28;20026;-77
2022/08/31 08:37:46;;;;;;;2.13;1.45;;;22.20;95.00;;;;;;4990780;28;20038;-74
2022/08/31 08:40:38;;;;;;;6.07;1.50;;;22.50;94.40;;;;;;4991203;28;20054;-75
2022/08/31 08:43:06;;;;;;;2.17;1.52;;;22.60;94.10;;;;;;4993786;28;20050;-75
2022/08/31 08:45:35;;;;;;;3.50;1.73;;;22.60;94.10;;;;;;4991975;28;20053;-75
2022/08/31 08:48:08;;;;;;;4.82;1.88;;;22.70;94.20;;;;;;4997650;28;20022;-76
2022/08/31 08:50:35;;;;;;;4.88;1.92;;;22.80;94.10;;;;;;4997476;28;20022;-75
2022/08/31 08:53:07;;;;;;;7.53;1.80;;;23.20;93.90;;;;;;4996063;28;20030;-75
2022/08/31 08:55:38;;;;;;;6.72;1.90;;;23.40;93.30;;;;;;4995183;28;20029;-76
2022/08/31 08:58:06;;;;;;;9.10;1.70;;;23.70;92.80;;;;;;4993430;28;20132;-77
2022/08/31 09:00:33;;;;;;;2.80;1.73;;;23.80;92.40;;;;;;4983674;28;20444;-76
2022/08/31 09:03:15;;;;;;;4.40;1.80;;;23.80;92.30;;;;;;4995596;28;20507;-75
2022/08/31 09:05:51;;;;;;;3.67;1.92;;;23.80;92.30;;;;;;4994223;28;20066;-75
2022/08/31 09:08:31;;;;;;;2.80;1.98;;;23.90;92.00;;;;;;4990981;28;20023;-75
2022/08/31 09:11:16;;;;;;;2.97;1.65;;;23.90;92.00;;;;;;5004514;28;20172;-75
2022/08/31 09:13:57;;;;;;;5.65;1.65;;;23.80;91.80;;;;;;5001903;28;20037;-74
2022/08/31 09:16:37;;;;;;;5.55;2.03;;;23.80;91.90;;;;;;4992655;28;20110;-77
2022/08/31 09:19:12;;;;;;;7.13;1.83;;;23.70;91.70;;;;;;5000820;28;20359;-77
2022/08/31 09:21:43;;;;;;;6.38;2.03;;;23.70;92.00;;;;;;5010150;28;20094;-76
2022/08/31 09:24:13;;;;;;;7.28;2.00;;;23.80;91.90;;;;;;4995970;28;20076;-76
2022/08/31 09:26:49;;;;;;;8.02;1.67;;;23.80;91.80;;;;;;4994167;28;20066;-77
2022/08/31 09:29:43;;;;;;;8.38;2.70;;;23.80;92.10;;;;;;4995389;28;20034;-76
2022/08/31 09:32:21;;;;;;;8.45;1.90;;;23.90;92.00;;;;;;4990386;28;20431;-76
2022/08/31 09:35:00;;;;;;;2.35;1.80;;;23.90;92.00;;;;;;4993702;28;20038;-76
2022/08/31 09:37:32;;;;;;;3.95;2.45;;;23.90;92.10;;;;;;4997179;28;20018;-76
2022/08/31 09:40:20;;;;;;;9.53;2.50;;;23.90;92.20;;;;;;4991409;28;20022;-76
2022/08/31 09:43:09;;;;;;;4.70;2.63;;;24.00;92.00;;;;;;4991209;28;20589;-75
2022/08/31 09:45:39;;;;;;;2.67;2.33;;;23.90;92.30;;;;;;4994934;28;20596;-78
2022/08/31 09:48:07;;;;;;;2.95;2.50;;;23.80;92.70;;;;;;4993679;28;20034;-77
2022/08/31 09:50:58;;;;;;;3.78;2.90;;;24.00;92.40;;;;;;4992554;28;20054;-77
2022/08/31 09:56:24;;;;;;;3.00;2.13;;;24.00;92.50;;;;;;5002832;28;20065;-76
2022/08/31 09:58:55;;;;;;;10.85;2.38;;;24.30;92.10;;;;;;4993433;28;20018;-76
2022/08/31 10:01:43;;;;;;;4.00;2.25;;;24.60;91.70;;;;;;5000031;28;20462;-76
2022/08/31 10:04:17;;;;;;;8.90;2.33;;;25.30;91.00;;;;;;4981854;28;20019;-76
2022/08/31 10:06:58;;;;;;;7.05;2.50;;;26.10;87.20;;;;;;4994202;28;20026;-76
2022/08/31 10:09:43;;;;;;;4.00;2.53;;;26.50;84.40;;;;;;4994444;28;20036;-77
2022/08/31 10:12:21;;;;;;;2.40;2.13;;;27.40;81.20;;;;;;4994179;28;20526;-78
2022/08/31 10:15:03;;;;;;;6.50;2.63;;;28.10;76.90;;;;;;4990084;28;20058;-75
2022/08/31 10:17:50;;;;;;;5.95;2.60;;;28.80;73.60;;;;;;4991309;28;20037;-75
2022/08/31 10:20:25;;;;;;;8.73;3.40;;;28.90;71.50;;;;;;4992424;28;20033;-76
2022/08/31 10:22:56;;;;;;;6.63;3.08;;;28.80;70.60;;;;;;4989402;28;20496;-77
2022/08/31 10:25:37;;;;;;;6.40;3.00;;;29.10;69.80;;;;;;4993978;28;20034;-75
2022/08/31 10:28:07;;;;;;;4.97;3.00;;;29.20;68.50;;;;;;4995570;28;20137;-76
2022/08/31 10:30:49;;;;;;;6.95;2.70;;;29.20;68.20;;;;;;4991403;28;20129;-75
2022/08/31 10:33:19;;;;;;;6.07;2.80;;;29.50;67.80;;;;;;4999819;28;20022;-76
2022/08/31 10:35:56;;;;;;;4.45;3.10;;;29.40;66.10;;;;;;4992636;28;20039;-77
2022/08/31 10:38:41;;;;;;;3.58;2.85;;;29.60;65.80;;;;;;4991248;28;20023;-74
2022/08/31 10:41:10;;;;;;;5.00;2.78;;;29.60;64.90;;;;;;4987513;28;20138;-75
2022/08/31 10:44:04;;;;;;;7.28;2.72;;;29.40;65.40;;;;;;4989330;28;20068;-75
2022/08/31 10:46:34;;;;;;;7.18;3.15;;;29.60;65.60;;;;;;4983627;28;20348;-75
2022/08/31 10:49:03;;;;;;;2.67;2.47;;;29.80;63.90;;;;;;4987834;28;20446;-73
2022/08/31 10:51:40;;;;;;;3.30;3.00;;;29.60;64.00;;;;;;4997766;28;20105;-74
2022/08/31 10:54:30;;;;;;;4.70;2.67;;;29.10;64.80;;;;;;5001245;28;20037;-76
2022/08/31 10:57:20;;;;;;;5.75;2.78;;;29.10;65.40;;;;;;4991218;28;20029;-76
2022/08/31 11:00:00;;;;;;;6.50;2.90;;;29.20;65.80;;;;;;4993018;28;20026;-76
2022/08/31 11:02:39;;;;;;;5.53;3.03;;;29.60;63.30;;;;;;4994367;28;20729;-75
2022/08/31 11:05:13;;;;;;;4.00;2.60;;;29.80;63.10;;;;;;4987126;28;20053;-76
2022/08/31 11:07:54;;;;;;;7.05;2.88;;;29.70;63.10;;;;;;4990018;28;20030;-75
2022/08/31 11:10:39;;;;;;;5.38;2.88;;;29.30;63.30;;;;;;4988348;28;20022;-75
2022/08/31 11:13:13;;;;;;;4.97;2.90;;;28.80;64.20;;;;;;4990626;28;20129;-73
2022/08/31 11:15:48;;;;;;;7.07;2.80;;;28.30;65.30;;;;;;4991203;28;20026;-77
2022/08/31 11:18:49;;;;;;;7.60;3.03;;;28.20;66.70;;;;;;4992721;28;20376;-75
2022/08/31 11:21:52;;;;;;;4.40;3.08;;;28.00;67.20;;;;;;4990988;28;20479;-75
2022/08/31 11:24:21;;;;;;;;;;;27.70;68.10;;;;;;4991960;28;20030;-72
2022/08/31 11:26:54;;;;;;;35.05;17.40;;;27.70;68.20;;;;;;4991353;28;20024;-73
2022/08/31 11:29:50;;;;;;;21.92;10.70;;;27.80;68.00;;;;;;4990304;28;20325;-72
2022/08/31 11:32:25;;;;;;;8.85;3.03;;;28.10;67.70;;;;;;4990272;28;20042;-77
2022/08/31 11:34:58;;;;;;;8.98;3.63;;;28.40;67.30;;;;;;4990225;28;20039;-77
2022/08/31 11:37:51;;;;;;;11.02;3.13;;;28.90;65.10;;;;;;4990738;28;20046;-75
2022/08/31 11:40:40;;;;;;;6.82;3.00;;;28.90;64.60;;;;;;4992217;28;20057;-76
2022/08/31 11:43:31;;;;;;;8.73;2.80;;;28.80;64.30;;;;;;4996452;28;20340;-76
2022/08/31 11:46:16;;;;;;;8.15;3.30;;;28.70;64.60;;;;;;4995518;28;20038;-76
2022/08/31 11:48:54;;;;;;;11.10;2.97;;;28.60;64.60;;;;;;4993998;28;20105;-77
2022/08/31 11:51:40;;;;;;;5.80;3.60;;;29.20;63.30;;;;;;4993611;28;20093;-76
2022/08/31 11:54:25;;;;;;;3.65;3.20;;;29.80;62.10;;;;;;4989176;28;20031;-76
2022/08/31 11:56:55;;;;;;;8.55;2.88;;;29.90;60.40;;;;;;4989341;28;20026;-77
2022/08/31 11:59:28;;;;;;;3.47;2.75;;;29.80;60.50;;;;;;4989691;28;20025;-75
2022/08/31 12:01:57;;;;;;;2.67;2.47;;;29.80;60.20;;;;;;4989737;28;20034;-76
2022/08/31 12:04:40;;;;;;;5.07;3.30;;;30.40;59.90;;;;;;4990300;28;20030;-76
2022/08/31 12:07:09;;;;;;;8.80;2.60;;;30.70;58.10;;;;;;4990288;28;20038;-75
2022/08/31 12:10:13;;;;;;;3.58;2.22;;;30.90;57.70;;;;;;4989150;28;20503;-76
2022/08/31 12:12:48;;;;;;;6.43;2.72;;;31.20;56.80;;;;;;4984971;28;20065;-76
2022/08/31 12:15:38;;;;;;;4.75;2.72;;;30.90;56.40;;;;;;4987770;28;20052;-77
2022/08/31 12:18:16;;;;;;;7.57;2.53;;;30.50;57.70;;;;;;4990387;28;20030;-75
2022/08/31 12:24:08;;;;;;;2.75;2.53;;;29.70;58.30;;;;;;4990011;28;20110;-75
2022/08/31 12:26:39;;;;;;;6.32;2.78;;;29.90;58.20;;;;;;4993066;28;20026;-76
2022/08/31 12:29:23;;;;;;;2.53;2.33;;;29.80;58.30;;;;;;4993323;28;20030;-75
2022/08/31 12:32:10;;;;;;;8.32;2.67;;;30.10;57.90;;;;;;4992777;28;20034;-76
2022/08/31 12:34:49;;;;;;;4.45;2.92;;;30.50;57.30;;;;;;4985431;28;20191;-76
2022/08/31 12:37:22;;;;;;;3.35;2.40;;;30.80;56.30;;;;;;4990972;28;20471;-76
2022/08/31 12:40:03;;;;;;;2.85;2.33;;;30.90;55.90;;;;;;4982949;28;20019;-76
2022/08/31 12:42:31;;;;;;;3.30;2.35;;;31.40;55.50;;;;;;4993727;28;20030;-75
2022/08/31 12:45:00;;;;;;;6.85;2.45;;;31.30;54.90;;;;;;4992927;28;20030;-76
2022/08/31 12:47:42;;;;;;;4.55;2.58;;;31.30;54.70;;;;;;4988759;28;20031;-76
2022/08/31 12:50:18;;;;;;;7.47;2.50;;;31.50;54.50;;;;;;4990959;28;20033;-75
2022/08/31 12:52:52;;;;;;;7.07;2.65;;;32.00;53.70;;;;;;4993940;28;20733;-76
2022/08/31 12:55:38;;;;;;;2.60;2.40;;;32.60;52.80;;;;;;4988031;28;20411;-76
2022/08/31 12:58:25;;;;;;;3.47;2.15;;;32.60;51.70;;;;;;4988220;28;20042;-75
2022/08/31 13:00:53;;;;;;;6.82;2.78;;;32.20;51.80;;;;;;4993853;28;20491;-76
2022/08/31 13:03:30;;;;;;;4.05;2.65;;;31.50;52.80;;;;;;4993722;28;20419;-75
2022/08/31 13:06:12;;;;;;;8.45;2.70;;;31.90;52.70;;;;;;4990845;28;20049;-77
2022/08/31 13:08:41;;;;;;;5.13;2.50;;;32.10;52.10;;;;;;4988367;28;20030;-75
2022/08/31 13:11:21;;;;;;;4.43;2.38;;;32.40;51.50;;;;;;4992294;28;20035;-76
2022/08/31 13:13:49;;;;;;;5.10;2.33;;;32.50;50.90;;;;;;4985825;28;20084;-76
2022/08/31 13:16:19;;;;;;;5.13;2.75;;;32.10;51.00;;;;;;4993308;28;20022;-75
2022/08/31 13:18:45;;;;;;;2.85;2.42;;;31.50;51.70;;;;;;4993559;28;20030;-76
2022/08/31 13:21:18;;;;;;;2.40;2.20;;;30.90;52.50;;;;;;4993547;28;20030;-76